sensor_id;sensor_type;location;lat;lon;timestamp;pressure;altitude;pressure_sealevel;temperature;humidity
13974;BME280;7060;43.770;4.008;2023-03-21T00:01:49;101431.44;;;5.96;68.37
13974;BME280;7060;43.770;4.008;2023-03-21T00:04:18;101436.75;;;5.96;68.32
13974;BME280;7060;43.770;4.008;2023-03-21T00:06:48;101431.44;;;5.96;68.06
13974;BME280;7060;43.770;4.008;2023-03-21T00:09:17;101422.44;;;5.85;67.87
13974;BME280;7060;43.770;4.008;2023-03-21T00:11:46;101423.97;;;5.89;68.05
13974;BME280;7060;43.770;4.008;2023-03-21T00:14:15;101424.25;;;5.84;68.00
13974;BME280;7060;43.770;4.008;2023-03-21T00:16:45;101427.50;;;5.75;68.52
13974;BME280;7060;43.770;4.008;2023-03-21T00:19:20;101425.16;;;5.70;68.54
13974;BME280;7060;43.770;4.008;2023-03-21T00:21:52;101419.38;;;5.64;68.73
13974;BME280;7060;43.770;4.008;2023-03-21T00:24:34;101422.41;;;5.58;68.93
13974;BME280;7060;43.770;4.008;2023-03-21T00:27:03;101381.00;;;5.28;68.88
13974;BME280;7060;43.770;4.008;2023-03-21T00:29:54;101417.53;;;5.52;68.88
13974;BME280;7060;43.770;4.008;2023-03-21T00:32:25;101412.41;;;5.49;68.84
13974;BME280;7060;43.770;4.008;2023-03-21T00:34:53;101404.81;;;5.42;68.97
13974;BME280;7060;43.770;4.008;2023-03-21T00:37:45;101411.53;;;5.34;69.27
13974;BME280;7060;43.770;4.008;2023-03-21T00:40:14;101401.97;;;5.31;69.54
13974;BME280;7060;43.770;4.008;2023-03-21T00:42:56;101405.72;;;5.29;69.74
13974;BME280;7060;43.770;4.008;2023-03-21T00:45:25;101387.97;;;5.29;69.56
13974;BME280;7060;43.770;4.008;2023-03-21T00:47:54;101396.91;;;5.28;69.69
13974;BME280;7060;43.770;4.008;2023-03-21T00:50:22;101401.88;;;5.33;69.37
13974;BME280;7060;43.770;4.008;2023-03-21T00:52:52;101397.16;;;5.38;69.65
13974;BME280;7060;43.770;4.008;2023-03-21T00:55:23;101394.22;;;5.42;69.42
13974;BME280;7060;43.770;4.008;2023-03-21T00:57:53;101396.88;;;5.42;69.12
13974;BME280;7060;43.770;4.008;2023-03-21T01:00:27;101388.53;;;5.34;69.32
13974;BME280;7060;43.770;4.008;2023-03-21T01:02:56;101384.69;;;5.26;69.52
13974;BME280;7060;43.770;4.008;2023-03-21T01:05:49;101393.97;;;5.19;69.13
13974;BME280;7060;43.770;4.008;2023-03-21T01:08:37;101388.75;;;5.17;69.39
13974;BME280;7060;43.770;4.008;2023-03-21T01:11:22;101338.56;;;4.86;69.49
13974;BME280;7060;43.770;4.008;2023-03-21T01:13:52;101385.44;;;5.14;69.71
13974;BME280;7060;43.770;4.008;2023-03-21T01:16:33;101385.91;;;5.06;69.70
13974;BME280;7060;43.770;4.008;2023-03-21T01:19:03;101385.22;;;5.02;69.48
13974;BME280;7060;43.770;4.008;2023-03-21T01:21:40;101363.44;;;4.83;69.73
13974;BME280;7060;43.770;4.008;2023-03-21T01:24:11;101386.56;;;4.95;69.95
13974;BME280;7060;43.770;4.008;2023-03-21T01:26:40;101380.84;;;4.87;69.45
13974;BME280;7060;43.770;4.008;2023-03-21T01:29:08;101385.47;;;4.84;69.79
13974;BME280;7060;43.770;4.008;2023-03-21T01:31:37;101383.00;;;4.81;69.47
13974;BME280;7060;43.770;4.008;2023-03-21T01:34:06;101385.84;;;4.77;69.71
13974;BME280;7060;43.770;4.008;2023-03-21T01:36:35;101379.91;;;4.74;69.77
13974;BME280;7060;43.770;4.008;2023-03-21T01:39:07;101370.44;;;4.70;69.75
13974;BME280;7060;43.770;4.008;2023-03-21T01:41:40;101366.09;;;4.69;70.05
13974;BME280;7060;43.770;4.008;2023-03-21T01:44:19;101334.72;;;4.47;70.10
13974;BME280;7060;43.770;4.008;2023-03-21T01:46:50;101366.84;;;4.71;69.93
13974;BME280;7060;43.770;4.008;2023-03-21T01:49:44;101360.03;;;4.67;70.19
13974;BME280;7060;43.770;4.008;2023-03-21T01:52:19;101356.81;;;4.76;69.13
13974;BME280;7060;43.770;4.008;2023-03-21T01:55:11;101345.75;;;4.69;69.30
13974;BME280;7060;43.770;4.008;2023-03-21T01:57:56;101353.31;;;4.75;69.21
13974;BME280;7060;43.770;4.008;2023-03-21T02:01:01;101349.25;;;4.70;68.51
13974;BME280;7060;43.770;4.008;2023-03-21T02:03:40;101348.66;;;4.65;69.20
13974;BME280;7060;43.770;4.008;2023-03-21T02:06:31;101352.19;;;4.65;68.46
13974;BME280;7060;43.770;4.008;2023-03-21T02:09:14;101353.22;;;4.63;68.43
13974;BME280;7060;43.770;4.008;2023-03-21T02:11:45;101354.59;;;4.54;69.13
13974;BME280;7060;43.770;4.008;2023-03-21T02:14:18;101352.31;;;4.48;68.44
13974;BME280;7060;43.770;4.008;2023-03-21T02:17:07;101346.75;;;4.38;69.52
13974;BME280;7060;43.770;4.008;2023-03-21T02:26:33;101347.00;;;4.20;69.34
13974;BME280;7060;43.770;4.008;2023-03-21T02:29:27;101342.72;;;4.17;70.10
13974;BME280;7060;43.770;4.008;2023-03-21T02:32:04;101334.78;;;4.17;70.54
13974;BME280;7060;43.770;4.008;2023-03-21T02:35:13;101328.06;;;4.12;70.62
13974;BME280;7060;43.770;4.008;2023-03-21T02:37:46;101323.69;;;4.10;69.93
13974;BME280;7060;43.770;4.008;2023-03-21T02:40:31;101324.06;;;4.04;70.29
13974;BME280;7060;43.770;4.008;2023-03-21T02:43:04;101316.13;;;4.04;70.72
13974;BME280;7060;43.770;4.008;2023-03-21T02:45:52;101313.63;;;4.01;70.38
13974;BME280;7060;43.770;4.008;2023-03-21T02:48:24;101324.13;;;4.03;70.05
13974;BME280;7060;43.770;4.008;2023-03-21T02:51:13;101267.38;;;3.79;70.29
13974;BME280;7060;43.770;4.008;2023-03-21T02:53:50;101316.88;;;4.06;70.53
13974;BME280;7060;43.770;4.008;2023-03-21T02:56:42;101229.06;;;3.56;69.99
13974;BME280;7060;43.770;4.008;2023-03-21T02:59:12;101311.00;;;4.01;69.88
13974;BME280;7060;43.770;4.008;2023-03-21T03:01:42;101310.41;;;3.96;69.97
13974;BME280;7060;43.770;4.008;2023-03-21T03:04:20;101305.28;;;3.93;69.32
13974;BME280;7060;43.770;4.008;2023-03-21T03:07:09;101303.97;;;3.86;70.06
13974;BME280;7060;43.770;4.008;2023-03-21T03:09:53;101296.22;;;3.83;70.41
13974;BME280;7060;43.770;4.008;2023-03-21T03:12:33;101301.66;;;3.80;71.03
13974;BME280;7060;43.770;4.008;2023-03-21T03:15:11;101304.50;;;3.77;71.11
13974;BME280;7060;43.770;4.008;2023-03-21T03:17:51;101271.34;;;3.56;70.00
13974;BME280;7060;43.770;4.008;2023-03-21T03:20:27;101295.97;;;3.72;71.20
13974;BME280;7060;43.770;4.008;2023-03-21T03:23:04;101295.09;;;3.71;70.67
13974;BME280;7060;43.770;4.008;2023-03-21T03:25:38;101303.13;;;3.70;70.81
13974;BME280;7060;43.770;4.008;2023-03-21T03:28:16;101302.56;;;3.65;71.33
13974;BME280;7060;43.770;4.008;2023-03-21T03:30:46;101303.69;;;3.61;71.02
13974;BME280;7060;43.770;4.008;2023-03-21T03:33:40;101299.50;;;3.57;70.80
13974;BME280;7060;43.770;4.008;2023-03-21T03:36:13;101304.63;;;3.60;71.50
13974;BME280;7060;43.770;4.008;2023-03-21T03:39:05;101306.66;;;3.55;70.91
13974;BME280;7060;43.770;4.008;2023-03-21T03:41:45;101301.38;;;3.55;70.72
13974;BME280;7060;43.770;4.008;2023-03-21T03:44:38;101310.59;;;3.48;71.14
13974;BME280;7060;43.770;4.008;2023-03-21T03:47:09;101295.56;;;3.48;71.41
13974;BME280;7060;43.770;4.008;2023-03-21T03:49:58;101300.59;;;3.53;71.33
13974;BME280;7060;43.770;4.008;2023-03-21T03:52:32;101278.53;;;3.38;71.10
13974;BME280;7060;43.770;4.008;2023-03-21T03:55:13;101304.19;;;3.52;71.02
13974;BME280;7060;43.770;4.008;2023-03-21T03:57:48;101288.75;;;3.44;71.24
13974;BME280;7060;43.770;4.008;2023-03-21T04:00:17;101299.06;;;3.49;70.65
13974;BME280;7060;43.770;4.008;2023-03-21T04:02:49;101303.59;;;3.47;71.06
13974;BME280;7060;43.770;4.008;2023-03-21T04:05:22;101313.47;;;3.43;71.82
13974;BME280;7060;43.770;4.008;2023-03-21T04:07:52;101311.00;;;3.40;71.74
13974;BME280;7060;43.770;4.008;2023-03-21T04:10:29;101310.44;;;3.35;70.92
13974;BME280;7060;43.770;4.008;2023-03-21T04:13:00;101302.50;;;3.35;71.46
13974;BME280;7060;43.770;4.008;2023-03-21T04:15:42;101293.03;;;3.31;71.17
13974;BME280;7060;43.770;4.008;2023-03-21T04:18:14;101302.84;;;3.29;72.04
13974;BME280;7060;43.770;4.008;2023-03-21T04:20:43;101303.69;;;3.29;71.64
13974;BME280;7060;43.770;4.008;2023-03-21T04:23:12;101306.34;;;3.29;72.31
13974;BME280;7060;43.770;4.008;2023-03-21T04:25:44;101306.34;;;3.29;71.59
13974;BME280;7060;43.770;4.008;2023-03-21T04:28:30;101302.69;;;3.32;72.22
13974;BME280;7060;43.770;4.008;2023-03-21T04:31:25;101308.13;;;3.29;71.55
13974;BME280;7060;43.770;4.008;2023-03-21T04:34:04;101308.03;;;3.30;72.37
13974;BME280;7060;43.770;4.008;2023-03-21T04:36:38;101314.19;;;3.31;71.34
13974;BME280;7060;43.770;4.008;2023-03-21T04:39:10;101313.50;;;3.27;71.07
13974;BME280;7060;43.770;4.008;2023-03-21T04:41:41;101311.97;;;3.23;71.24
13974;BME280;7060;43.770;4.008;2023-03-21T04:44:13;101309.66;;;3.17;71.76
13974;BME280;7060;43.770;4.008;2023-03-21T04:46:43;101313.91;;;3.20;71.65
13974;BME280;7060;43.770;4.008;2023-03-21T04:49:13;101308.63;;;3.20;71.34
13974;BME280;7060;43.770;4.008;2023-03-21T04:51:43;101312.81;;;3.24;71.72
13974;BME280;7060;43.770;4.008;2023-03-21T04:54:16;101307.44;;;3.25;70.92
13974;BME280;7060;43.770;4.008;2023-03-21T04:56:47;101309.22;;;3.25;71.22
13974;BME280;7060;43.770;4.008;2023-03-21T04:59:17;101253.03;;;2.90;71.44
13974;BME280;7060;43.770;4.008;2023-03-21T05:01:47;101315.53;;;3.22;71.58
13974;BME280;7060;43.770;4.008;2023-03-21T05:04:17;101316.47;;;3.21;70.77
13974;BME280;7060;43.770;4.008;2023-03-21T05:06:46;101310.59;;;3.16;71.02
13974;BME280;7060;43.770;4.008;2023-03-21T05:09:15;101317.03;;;3.11;71.25
13974;BME280;7060;43.770;4.008;2023-03-21T05:11:44;101316.56;;;3.04;71.63
13974;BME280;7060;43.770;4.008;2023-03-21T05:14:16;101314.84;;;3.03;71.74
13974;BME280;7060;43.770;4.008;2023-03-21T05:16:46;101314.31;;;2.96;72.01
13974;BME280;7060;43.770;4.008;2023-03-21T05:19:21;101325.91;;;2.94;71.69
13974;BME280;7060;43.770;4.008;2023-03-21T05:21:50;101325.91;;;2.94;72.01
13974;BME280;7060;43.770;4.008;2023-03-21T05:24:22;101330.31;;;2.93;71.62
13974;BME280;7060;43.770;4.008;2023-03-21T05:26:51;101326.75;;;2.94;71.68
13974;BME280;7060;43.770;4.008;2023-03-21T05:29:30;101153.88;;;1.88;72.03
13974;BME280;7060;43.770;4.008;2023-03-21T05:32:02;101329.22;;;2.97;72.36
13974;BME280;7060;43.770;4.008;2023-03-21T05:34:31;101326.75;;;2.94;71.74
13974;BME280;7060;43.770;4.008;2023-03-21T05:37:00;101334.09;;;3.05;72.08
13974;BME280;7060;43.770;4.008;2023-03-21T05:39:42;101337.53;;;3.07;71.86
13974;BME280;7060;43.770;4.008;2023-03-21T05:42:17;101312.94;;;2.89;70.87
13974;BME280;7060;43.770;4.008;2023-03-21T05:44:49;101334.34;;;3.00;71.52
13974;BME280;7060;43.770;4.008;2023-03-21T05:47:22;101346.00;;;2.96;71.19
13974;BME280;7060;43.770;4.008;2023-03-21T05:49:52;101341.81;;;2.92;71.23
13974;BME280;7060;43.770;4.008;2023-03-21T05:52:22;101340.19;;;2.90;71.35
13974;BME280;7060;43.770;4.008;2023-03-21T05:54:50;101341.28;;;2.86;71.62
13974;BME280;7060;43.770;4.008;2023-03-21T05:57:22;101337.63;;;2.88;71.99
13974;BME280;7060;43.770;4.008;2023-03-21T06:00:04;101349.59;;;2.95;71.77
13974;BME280;7060;43.770;4.008;2023-03-21T06:02:41;101344.31;;;2.95;71.55
13974;BME280;7060;43.770;4.008;2023-03-21T06:05:29;101344.38;;;2.94;72.16
13974;BME280;7060;43.770;4.008;2023-03-21T06:07:57;101343.06;;;3.02;72.46
13974;BME280;7060;43.770;4.008;2023-03-21T06:10:26;101338.63;;;3.03;71.88
13974;BME280;7060;43.770;4.008;2023-03-21T06:12:55;101344.94;;;3.16;71.58
13974;BME280;7060;43.770;4.008;2023-03-21T06:15:29;101341.34;;;3.17;71.71
13974;BME280;7060;43.770;4.008;2023-03-21T06:18:10;101342.72;;;3.24;72.42
13974;BME280;7060;43.770;4.008;2023-03-21T06:20:48;101345.66;;;3.35;71.40
13974;BME280;7060;43.770;4.008;2023-03-21T06:23:16;101343.41;;;3.43;72.00
13974;BME280;7060;43.770;4.008;2023-03-21T06:25:46;101341.88;;;3.55;71.22
13974;BME280;7060;43.770;4.008;2023-03-21T06:28:16;101341.81;;;3.57;71.08
13974;BME280;7060;43.770;4.008;2023-03-21T06:30:46;101340.69;;;3.61;71.93
13974;BME280;7060;43.770;4.008;2023-03-21T06:33:19;101206.63;;;2.86;71.42
13974;BME280;7060;43.770;4.008;2023-03-21T06:35:50;101345.00;;;3.78;71.77
13974;BME280;7060;43.770;4.008;2023-03-21T06:38:20;101348.59;;;3.92;72.14
13974;BME280;7060;43.770;4.008;2023-03-21T06:40:49;101345.81;;;4.09;72.19
13974;BME280;7060;43.770;4.008;2023-03-21T06:43:17;101349.84;;;4.31;72.63
13974;BME280;7060;43.770;4.008;2023-03-21T06:45:47;101349.41;;;4.53;71.96
13974;BME280;7060;43.770;4.008;2023-03-21T06:48:16;101354.06;;;4.63;72.82
13974;BME280;7060;43.770;4.008;2023-03-21T06:50:49;101351.97;;;4.83;72.42
13974;BME280;7060;43.770;4.008;2023-03-21T06:53:20;101350.44;;;4.94;71.98
13974;BME280;7060;43.770;4.008;2023-03-21T06:56:14;101355.63;;;5.10;72.41
13974;BME280;7060;43.770;4.008;2023-03-21T06:58:44;101357.84;;;5.30;71.88
13974;BME280;7060;43.770;4.008;2023-03-21T07:01:34;101357.75;;;5.46;71.71
13974;BME280;7060;43.770;4.008;2023-03-21T07:04:05;101349.84;;;5.59;71.80
13974;BME280;7060;43.770;4.008;2023-03-21T07:06:34;101346.88;;;5.77;72.31
13974;BME280;7060;43.770;4.008;2023-03-21T07:09:03;101352.66;;;5.97;72.43
13974;BME280;7060;43.770;4.008;2023-03-21T07:11:35;101333.03;;;5.99;71.78
13974;BME280;7060;43.770;4.008;2023-03-21T07:14:04;101352.31;;;6.28;71.67
13974;BME280;7060;43.770;4.008;2023-03-21T07:16:37;101355.94;;;6.40;71.99
13974;BME280;7060;43.770;4.008;2023-03-21T07:19:05;101354.38;;;6.50;72.09
13974;BME280;7060;43.770;4.008;2023-03-21T07:21:33;101362.28;;;6.64;72.09
13974;BME280;7060;43.770;4.008;2023-03-21T07:24:02;101368.63;;;6.74;71.68
13974;BME280;7060;43.770;4.008;2023-03-21T07:26:31;101366.75;;;6.89;72.07
13974;BME280;7060;43.770;4.008;2023-03-21T07:29:02;101371.94;;;7.03;71.74
13974;BME280;7060;43.770;4.008;2023-03-21T07:31:30;101378.19;;;7.15;71.59
13974;BME280;7060;43.770;4.008;2023-03-21T07:34:02;101369.69;;;7.35;71.44
13974;BME280;7060;43.770;4.008;2023-03-21T07:36:32;101373.22;;;7.60;71.32
13974;BME280;7060;43.770;4.008;2023-03-21T07:39:00;101369.75;;;7.83;70.66
13974;BME280;7060;43.770;4.008;2023-03-21T07:41:29;101375.91;;;8.07;70.42
13974;BME280;7060;43.770;4.008;2023-03-21T07:44:09;101370.94;;;8.27;70.24
13974;BME280;7060;43.770;4.008;2023-03-21T07:46:37;101370.38;;;8.45;69.26
13974;BME280;7060;43.770;4.008;2023-03-21T07:49:07;101374.06;;;8.67;68.93
13974;BME280;7060;43.770;4.008;2023-03-21T07:51:36;101374.72;;;8.81;69.11
13974;BME280;7060;43.770;4.008;2023-03-21T07:54:05;101378.59;;;9.00;68.34
13974;BME280;7060;43.770;4.008;2023-03-21T07:56:33;101383.56;;;9.15;67.97
13974;BME280;7060;43.770;4.008;2023-03-21T07:59:02;101372.81;;;9.28;67.82
13974;BME280;7060;43.770;4.008;2023-03-21T08:01:31;101377.88;;;9.42;67.30
13974;BME280;7060;43.770;4.008;2023-03-21T08:03:59;101376.91;;;9.55;66.82
13974;BME280;7060;43.770;4.008;2023-03-21T08:06:29;101376.63;;;9.69;67.30
13974;BME280;7060;43.770;4.008;2023-03-21T08:08:58;101360.00;;;9.76;66.40
13974;BME280;7060;43.770;4.008;2023-03-21T08:11:27;101367.22;;;9.97;66.26
13974;BME280;7060;43.770;4.008;2023-03-21T08:13:57;101371.56;;;10.09;66.08
13974;BME280;7060;43.770;4.008;2023-03-21T08:16:26;101371.25;;;10.23;65.68
13974;BME280;7060;43.770;4.008;2023-03-21T08:18:55;101372.53;;;10.40;65.92
13974;BME280;7060;43.770;4.008;2023-03-21T08:21:23;101371.34;;;10.53;65.48
13974;BME280;7060;43.770;4.008;2023-03-21T08:23:55;101370.38;;;10.75;65.47
13974;BME280;7060;43.770;4.008;2023-03-21T08:26:24;101374.44;;;10.91;64.31
13974;BME280;7060;43.770;4.008;2023-03-21T08:28:52;101369.16;;;11.00;63.10
13974;BME280;7060;43.770;4.008;2023-03-21T08:31:21;101375.22;;;11.12;62.98
13974;BME280;7060;43.770;4.008;2023-03-21T08:33:49;101378.28;;;11.28;63.15
13974;BME280;7060;43.770;4.008;2023-03-21T08:36:20;101375.50;;;11.39;61.65
13974;BME280;7060;43.770;4.008;2023-03-21T08:38:49;101377.09;;;11.51;61.48
13974;BME280;7060;43.770;4.008;2023-03-21T08:41:24;101367.25;;;11.62;62.06
13974;BME280;7060;43.770;4.008;2023-03-21T08:43:53;101373.75;;;11.69;61.19
13974;BME280;7060;43.770;4.008;2023-03-21T08:46:21;101373.63;;;11.70;60.59
13974;BME280;7060;43.770;4.008;2023-03-21T08:48:49;101375.59;;;11.78;60.50
13974;BME280;7060;43.770;4.008;2023-03-21T08:51:18;101379.56;;;11.83;60.31
13974;BME280;7060;43.770;4.008;2023-03-21T08:53:46;101382.38;;;11.92;60.53
13974;BME280;7060;43.770;4.008;2023-03-21T08:56:17;101383.53;;;11.99;60.51
13974;BME280;7060;43.770;4.008;2023-03-21T08:58:47;101376.50;;;12.07;60.85
13974;BME280;7060;43.770;4.008;2023-03-21T09:01:15;101380.19;;;12.16;61.26
13974;BME280;7060;43.770;4.008;2023-03-21T09:03:44;101386.69;;;12.33;61.00
13974;BME280;7060;43.770;4.008;2023-03-21T09:06:12;101392.03;;;12.52;59.72
13974;BME280;7060;43.770;4.008;2023-03-21T09:08:41;101384.00;;;12.62;59.15
13974;BME280;7060;43.770;4.008;2023-03-21T09:11:12;101385.09;;;12.69;57.71
13974;BME280;7060;43.770;4.008;2023-03-21T09:13:41;101386.38;;;12.74;57.61
13974;BME280;7060;43.770;4.008;2023-03-21T09:16:10;101385.50;;;12.83;57.30
13974;BME280;7060;43.770;4.008;2023-03-21T09:18:39;101387.19;;;12.94;57.42
13974;BME280;7060;43.770;4.008;2023-03-21T09:21:16;101388.84;;;13.05;56.14
13974;BME280;7060;43.770;4.008;2023-03-21T09:23:46;101386.13;;;13.14;55.44
13974;BME280;7060;43.770;4.008;2023-03-21T09:26:19;101387.91;;;13.23;54.52
13974;BME280;7060;43.770;4.008;2023-03-21T09:28:50;101381.81;;;13.31;54.24
13974;BME280;7060;43.770;4.008;2023-03-21T09:31:20;101380.94;;;13.40;54.57
13974;BME280;7060;43.770;4.008;2023-03-21T09:33:52;101385.28;;;13.51;54.16
13974;BME280;7060;43.770;4.008;2023-03-21T09:36:22;101342.63;;;13.38;52.95
13974;BME280;7060;43.770;4.008;2023-03-21T09:38:51;101379.03;;;13.60;52.98
13974;BME280;7060;43.770;4.008;2023-03-21T09:41:28;101381.13;;;13.66;53.99
13974;BME280;7060;43.770;4.008;2023-03-21T09:44:10;101377.28;;;13.69;54.35
13974;BME280;7060;43.770;4.008;2023-03-21T09:46:47;101381.22;;;13.74;53.63
13974;BME280;7060;43.770;4.008;2023-03-21T09:49:20;101380.59;;;13.80;53.79
13974;BME280;7060;43.770;4.008;2023-03-21T09:51:53;101382.84;;;13.85;53.31
13974;BME280;7060;43.770;4.008;2023-03-21T09:54:25;101396.47;;;14.01;53.11
13974;BME280;7060;43.770;4.008;2023-03-21T09:56:56;101349.13;;;13.90;52.31
13974;BME280;7060;43.770;4.008;2023-03-21T09:59:32;101374.25;;;14.17;52.31
13974;BME280;7060;43.770;4.008;2023-03-21T10:02:19;101376.88;;;14.27;53.59
13974;BME280;7060;43.770;4.008;2023-03-21T10:04:49;101381.56;;;14.24;52.58
13974;BME280;7060;43.770;4.008;2023-03-21T10:07:18;101378.72;;;14.26;52.43
13974;BME280;7060;43.770;4.008;2023-03-21T10:09:47;101365.47;;;14.33;53.22
13974;BME280;7060;43.770;4.008;2023-03-21T10:12:20;101359.19;;;14.42;52.65
13974;BME280;7060;43.770;4.008;2023-03-21T10:14:51;101364.63;;;14.50;53.76
13974;BME280;7060;43.770;4.008;2023-03-21T10:17:29;101365.59;;;14.59;52.08
13974;BME280;7060;43.770;4.008;2023-03-21T10:20:09;101353.63;;;14.61;52.39
13974;BME280;7060;43.770;4.008;2023-03-21T10:22:39;101349.63;;;14.65;51.88
13974;BME280;7060;43.770;4.008;2023-03-21T10:25:14;101356.09;;;14.72;51.86
13974;BME280;7060;43.770;4.008;2023-03-21T10:27:44;101367.91;;;14.79;51.85
13974;BME280;7060;43.770;4.008;2023-03-21T10:30:25;101356.00;;;14.82;51.12
13974;BME280;7060;43.770;4.008;2023-03-21T10:32:59;101352.47;;;14.89;51.96
13974;BME280;7060;43.770;4.008;2023-03-21T10:35:32;101349.84;;;14.98;51.54
13974;BME280;7060;43.770;4.008;2023-03-21T10:38:04;101347.69;;;15.01;50.92
13974;BME280;7060;43.770;4.008;2023-03-21T10:40:34;101340.44;;;15.02;51.46
13974;BME280;7060;43.770;4.008;2023-03-21T10:43:16;101339.16;;;15.14;51.19
13974;BME280;7060;43.770;4.008;2023-03-21T10:45:45;101346.59;;;15.20;50.75
13974;BME280;7060;43.770;4.008;2023-03-21T10:48:16;101343.94;;;15.28;51.14
13974;BME280;7060;43.770;4.008;2023-03-21T10:50:46;101336.25;;;15.41;51.14
13974;BME280;7060;43.770;4.008;2023-03-21T10:53:19;101335.44;;;15.41;50.31
13974;BME280;7060;43.770;4.008;2023-03-21T10:55:51;101337.59;;;15.45;51.11
13974;BME280;7060;43.770;4.008;2023-03-21T10:58:24;101332.94;;;15.55;50.61
13974;BME280;7060;43.770;4.008;2023-03-21T11:00:55;101330.59;;;15.61;48.78
13974;BME280;7060;43.770;4.008;2023-03-21T11:03:30;101308.97;;;15.44;48.60
13974;BME280;7060;43.770;4.008;2023-03-21T11:06:02;101329.13;;;15.74;49.41
13974;BME280;7060;43.770;4.008;2023-03-21T11:08:37;101297.47;;;15.68;49.06
13974;BME280;7060;43.770;4.008;2023-03-21T11:11:07;101323.09;;;15.97;48.60
13974;BME280;7060;43.770;4.008;2023-03-21T11:13:40;101284.50;;;15.80;48.64
13974;BME280;7060;43.770;4.008;2023-03-21T11:16:10;101324.16;;;16.20;49.50
13974;BME280;7060;43.770;4.008;2023-03-21T11:18:43;101319.09;;;16.25;48.70
13974;BME280;7060;43.770;4.008;2023-03-21T11:21:13;101277.25;;;15.97;48.22
13974;BME280;7060;43.770;4.008;2023-03-21T11:23:43;101320.44;;;16.29;48.22
13974;BME280;7060;43.770;4.008;2023-03-21T11:26:18;101299.53;;;16.31;47.73
13974;BME280;7060;43.770;4.008;2023-03-21T11:28:50;101300.03;;;16.35;48.26
13974;BME280;7060;43.770;4.008;2023-03-21T11:31:19;101304.09;;;16.39;48.87
13974;BME280;7060;43.770;4.008;2023-03-21T11:33:53;101292.44;;;16.46;47.44
13974;BME280;7060;43.770;4.008;2023-03-21T11:36:31;101292.09;;;16.49;47.85
13974;BME280;7060;43.770;4.008;2023-03-21T11:39:13;101293.94;;;16.57;48.05
13974;BME280;7060;43.770;4.008;2023-03-21T11:41:46;101288.22;;;16.68;47.68
13974;BME280;7060;43.770;4.008;2023-03-21T11:44:27;101284.13;;;16.80;46.58
13974;BME280;7060;43.770;4.008;2023-03-21T11:46:55;101281.06;;;16.83;46.60
13974;BME280;7060;43.770;4.008;2023-03-21T11:49:26;101248.88;;;16.74;46.60
13974;BME280;7060;43.770;4.008;2023-03-21T11:52:05;101267.56;;;16.91;46.79
13974;BME280;7060;43.770;4.008;2023-03-21T11:54:49;101240.25;;;16.78;46.43
13974;BME280;7060;43.770;4.008;2023-03-21T11:57:25;101277.66;;;16.98;45.93
13974;BME280;7060;43.770;4.008;2023-03-21T12:00:02;101248.31;;;16.86;46.05
13974;BME280;7060;43.770;4.008;2023-03-21T12:02:54;101264.09;;;17.06;45.75
13974;BME280;7060;43.770;4.008;2023-03-21T12:05:33;101261.19;;;17.15;46.59
13974;BME280;7060;43.770;4.008;2023-03-21T12:08:12;101255.78;;;17.23;46.99
13974;BME280;7060;43.770;4.008;2023-03-21T12:10:50;101260.31;;;17.31;46.56
13974;BME280;7060;43.770;4.008;2023-03-21T12:13:33;101246.91;;;17.38;46.07
13974;BME280;7060;43.770;4.008;2023-03-21T12:16:14;101223.84;;;17.27;44.91
13974;BME280;7060;43.770;4.008;2023-03-21T12:19:17;101234.22;;;17.38;44.96
13974;BME280;7060;43.770;4.008;2023-03-21T12:21:57;101218.66;;;17.40;45.41
13974;BME280;7060;43.770;4.008;2023-03-21T12:24:33;101221.69;;;17.45;44.17
13974;BME280;7060;43.770;4.008;2023-03-21T12:27:11;101222.75;;;17.36;44.55
13974;BME280;7060;43.770;4.008;2023-03-21T12:29:54;101221.03;;;17.43;45.13
13974;BME280;7060;43.770;4.008;2023-03-21T12:32:37;101209.50;;;17.49;44.49
13974;BME280;7060;43.770;4.008;2023-03-21T12:35:26;101196.47;;;17.53;44.68
13974;BME280;7060;43.770;4.008;2023-03-21T12:38:10;101203.38;;;17.55;44.79
13974;BME280;7060;43.770;4.008;2023-03-21T12:40:49;101202.03;;;17.59;44.19
13974;BME280;7060;43.770;4.008;2023-03-21T12:43:32;101194.19;;;17.65;43.81
13974;BME280;7060;43.770;4.008;2023-03-21T12:46:08;101199.97;;;17.62;43.39
13974;BME280;7060;43.770;4.008;2023-03-21T12:48:42;101195.16;;;17.72;43.30
13974;BME280;7060;43.770;4.008;2023-03-21T12:51:16;101169.81;;;17.73;43.33
13974;BME280;7060;43.770;4.008;2023-03-21T12:54:01;101182.16;;;17.90;43.62
13974;BME280;7060;43.770;4.008;2023-03-21T12:56:35;101178.19;;;18.01;42.68
13974;BME280;7060;43.770;4.008;2023-03-21T12:59:12;101140.91;;;17.88;42.18
13974;BME280;7060;43.770;4.008;2023-03-21T13:01:47;101178.19;;;18.15;42.30
13974;BME280;7060;43.770;4.008;2023-03-21T13:04:32;101176.34;;;18.31;42.94
13974;BME280;7060;43.770;4.008;2023-03-21T13:07:06;101173.75;;;18.37;42.52
13974;BME280;7060;43.770;4.008;2023-03-21T13:09:37;101168.41;;;18.44;43.27
13974;BME280;7060;43.770;4.008;2023-03-21T13:12:20;101153.97;;;18.37;42.45
13974;BME280;7060;43.770;4.008;2023-03-21T13:15:01;101169.50;;;18.57;42.08
13974;BME280;7060;43.770;4.008;2023-03-21T13:17:44;101165.56;;;18.60;41.41
13974;BME280;7060;43.770;4.008;2023-03-21T13:20:21;101160.44;;;18.65;41.28
13974;BME280;7060;43.770;4.008;2023-03-21T13:22:52;101155.38;;;18.62;41.34
13974;BME280;7060;43.770;4.008;2023-03-21T13:25:23;101155.38;;;18.62;41.13
13974;BME280;7060;43.770;4.008;2023-03-21T13:28:00;101157.25;;;18.62;41.25
13974;BME280;7060;43.770;4.008;2023-03-21T13:30:30;101153.25;;;18.57;41.74
13974;BME280;7060;43.770;4.008;2023-03-21T13:33:04;101156.41;;;18.61;41.87
13974;BME280;7060;43.770;4.008;2023-03-21T13:35:34;101158.66;;;18.57;41.54
13974;BME280;7060;43.770;4.008;2023-03-21T13:38:10;101151.78;;;18.47;41.86
13974;BME280;7060;43.770;4.008;2023-03-21T13:40:46;101145.66;;;18.38;43.29
13974;BME280;7060;43.770;4.008;2023-03-21T13:43:50;101145.94;;;18.28;43.28
13974;BME280;7060;43.770;4.008;2023-03-21T13:46:43;101149.75;;;18.05;44.54
13974;BME280;7060;43.770;4.008;2023-03-21T13:49:29;101148.91;;;18.19;44.66
13974;BME280;7060;43.770;4.008;2023-03-21T13:51:59;101146.00;;;18.20;44.26
13974;BME280;7060;43.770;4.008;2023-03-21T13:54:44;101139.28;;;18.16;44.24